sensor_id;sensor_type;location;lat;lon;timestamp;temperature;humidity
77039;DHT22;65970;50.476;4.840;2023-11-18T00:00:55;8.10;39.60
77039;DHT22;65970;50.476;4.840;2023-11-18T00:05:55;8.10;39.50
77039;DHT22;65970;50.476;4.840;2023-11-18T00:10:56;8.10;39.50
77039;DHT22;65970;50.476;4.840;2023-11-18T00:15:56;8.10;39.50
77039;DHT22;65970;50.476;4.840;2023-11-18T00:20:58;8.00;39.40
77039;DHT22;65970;50.476;4.840;2023-11-18T00:25:58;8.00;39.50
77039;DHT22;65970;50.476;4.840;2023-11-18T00:30:59;8.10;39.60
77039;DHT22;65970;50.476;4.840;2023-11-18T00:35:59;8.00;39.50
77039;DHT22;65970;50.476;4.840;2023-11-18T00:41:00;8.00;39.40
77039;DHT22;65970;50.476;4.840;2023-11-18T00:46:00;8.00;38.60
77039;DHT22;65970;50.476;4.840;2023-11-18T00:51:01;8.00;39.40
77039;DHT22;65970;50.476;4.840;2023-11-18T00:56:01;8.00;39.40
77039;DHT22;65970;50.476;4.840;2023-11-18T01:01:02;8.00;39.40
77039;DHT22;65970;50.476;4.840;2023-11-18T01:06:03;8.00;39.40
77039;DHT22;65970;50.476;4.840;2023-11-18T01:11:04;8.00;39.40
77039;DHT22;65970;50.476;4.840;2023-11-18T01:16:05;8.00;39.30
77039;DHT22;65970;50.476;4.840;2023-11-18T01:21:06;8.00;39.40
77039;DHT22;65970;50.476;4.840;2023-11-18T01:26:06;7.90;39.40
77039;DHT22;65970;50.476;4.840;2023-11-18T01:31:07;7.90;39.30
77039;DHT22;65970;50.476;4.840;2023-11-18T01:36:08;7.90;39.40
77039;DHT22;65970;50.476;4.840;2023-11-18T01:41:09;7.90;39.30
77039;DHT22;65970;50.476;4.840;2023-11-18T01:46:10;7.90;39.30
77039;DHT22;65970;50.476;4.840;2023-11-18T01:51:10;7.90;39.30
77039;DHT22;65970;50.476;4.840;2023-11-18T01:56:11;7.90;39.30
77039;DHT22;65970;50.476;4.840;2023-11-18T02:01:12;7.90;39.30
77039;DHT22;65970;50.476;4.840;2023-11-18T02:06:13;7.90;39.30
77039;DHT22;65970;50.476;4.840;2023-11-18T02:11:23;7.90;39.20
77039;DHT22;65970;50.476;4.840;2023-11-18T02:16:27;7.90;39.20
77039;DHT22;65970;50.476;4.840;2023-11-18T02:21:30;7.90;39.30
77039;DHT22;65970;50.476;4.840;2023-11-18T02:26:30;7.90;39.20
77039;DHT22;65970;50.476;4.840;2023-11-18T02:31:34;7.90;39.30
77039;DHT22;65970;50.476;4.840;2023-11-18T02:36:40;7.90;39.30
77039;DHT22;65970;50.476;4.840;2023-11-18T02:41:42;7.90;39.20
77039;DHT22;65970;50.476;4.840;2023-11-18T02:46:44;7.90;39.20
77039;DHT22;65970;50.476;4.840;2023-11-18T02:51:44;7.90;39.20
77039;DHT22;65970;50.476;4.840;2023-11-18T02:56:45;7.90;39.20
77039;DHT22;65970;50.476;4.840;2023-11-18T03:01:45;7.90;39.20
77039;DHT22;65970;50.476;4.840;2023-11-18T03:06:46;7.90;39.10
77039;DHT22;65970;50.476;4.840;2023-11-18T03:11:46;7.90;39.20
77039;DHT22;65970;50.476;4.840;2023-11-18T03:16:47;7.90;39.20
77039;DHT22;65970;50.476;4.840;2023-11-18T03:21:51;7.90;39.20
77039;DHT22;65970;50.476;4.840;2023-11-18T03:26:52;7.90;39.20
77039;DHT22;65970;50.476;4.840;2023-11-18T03:31:52;7.90;39.20
77039;DHT22;65970;50.476;4.840;2023-11-18T03:36:53;7.80;39.10
77039;DHT22;65970;50.476;4.840;2023-11-18T03:41:53;7.80;39.00
77039;DHT22;65970;50.476;4.840;2023-11-18T03:46:54;7.80;38.90
77039;DHT22;65970;50.476;4.840;2023-11-18T03:51:54;7.80;38.90
77039;DHT22;65970;50.476;4.840;2023-11-18T03:56:55;7.80;38.90
77039;DHT22;65970;50.476;4.840;2023-11-18T04:01:55;7.80;39.00
77039;DHT22;65970;50.476;4.840;2023-11-18T04:06:56;7.80;39.10
77039;DHT22;65970;50.476;4.840;2023-11-18T04:11:56;7.80;39.00
77039;DHT22;65970;50.476;4.840;2023-11-18T04:16:57;7.80;39.90
77039;DHT22;65970;50.476;4.840;2023-11-18T04:21:57;7.80;39.20
77039;DHT22;65970;50.476;4.840;2023-11-18T04:26:58;7.80;39.10
77039;DHT22;65970;50.476;4.840;2023-11-18T04:31:58;7.80;39.10
77039;DHT22;65970;50.476;4.840;2023-11-18T04:36:59;7.80;39.30
77039;DHT22;65970;50.476;4.840;2023-11-18T04:41:59;7.80;39.20
77039;DHT22;65970;50.476;4.840;2023-11-18T04:47:00;7.80;39.10
77039;DHT22;65970;50.476;4.840;2023-11-18T04:52:01;7.80;39.10
77039;DHT22;65970;50.476;4.840;2023-11-18T04:57:01;7.80;39.10
77039;DHT22;65970;50.476;4.840;2023-11-18T05:02:02;7.80;39.10
77039;DHT22;65970;50.476;4.840;2023-11-18T05:07:02;7.80;39.10
77039;DHT22;65970;50.476;4.840;2023-11-18T05:12:03;7.80;39.20
77039;DHT22;65970;50.476;4.840;2023-11-18T05:17:04;7.80;39.20
77039;DHT22;65970;50.476;4.840;2023-11-18T05:22:04;7.80;39.20
77039;DHT22;65970;50.476;4.840;2023-11-18T05:27:05;7.80;39.10
77039;DHT22;65970;50.476;4.840;2023-11-18T05:32:06;7.90;39.50
77039;DHT22;65970;50.476;4.840;2023-11-18T05:37:06;7.90;39.20
77039;DHT22;65970;50.476;4.840;2023-11-18T05:42:07;7.80;39.10
77039;DHT22;65970;50.476;4.840;2023-11-18T05:47:08;7.80;39.10
77039;DHT22;65970;50.476;4.840;2023-11-18T05:52:08;7.80;39.10
77039;DHT22;65970;50.476;4.840;2023-11-18T05:57:09;7.90;39.10
77039;DHT22;65970;50.476;4.840;2023-11-18T06:02:10;7.90;39.10
77039;DHT22;65970;50.476;4.840;2023-11-18T06:07:10;7.90;39.10
77039;DHT22;65970;50.476;4.840;2023-11-18T06:12:11;7.90;39.10
77039;DHT22;65970;50.476;4.840;2023-11-18T06:17:11;7.90;39.10
77039;DHT22;65970;50.476;4.840;2023-11-18T06:22:12;7.90;39.10
77039;DHT22;65970;50.476;4.840;2023-11-18T06:27:12;7.90;39.20
77039;DHT22;65970;50.476;4.840;2023-11-18T06:32:13;7.90;39.10
77039;DHT22;65970;50.476;4.840;2023-11-18T06:37:13;7.90;39.00
77039;DHT22;65970;50.476;4.840;2023-11-18T06:42:14;7.90;39.00
77039;DHT22;65970;50.476;4.840;2023-11-18T06:47:15;7.90;39.00
77039;DHT22;65970;50.476;4.840;2023-11-18T06:52:18;7.90;39.00
77039;DHT22;65970;50.476;4.840;2023-11-18T06:57:18;7.90;39.20
77039;DHT22;65970;50.476;4.840;2023-11-18T07:02:19;7.90;39.00
77039;DHT22;65970;50.476;4.840;2023-11-18T07:07:19;7.90;39.20
77039;DHT22;65970;50.476;4.840;2023-11-18T07:12:20;7.90;39.30
77039;DHT22;65970;50.476;4.840;2023-11-18T07:17:20;7.90;39.20
77039;DHT22;65970;50.476;4.840;2023-11-18T07:22:21;8.00;39.20
77039;DHT22;65970;50.476;4.840;2023-11-18T07:27:21;8.00;39.40
77039;DHT22;65970;50.476;4.840;2023-11-18T07:32:22;7.90;39.40
77039;DHT22;65970;50.476;4.840;2023-11-18T07:37:23;8.00;39.60
77039;DHT22;65970;50.476;4.840;2023-11-18T07:42:26;8.00;39.60
77039;DHT22;65970;50.476;4.840;2023-11-18T07:47:26;8.00;39.60
77039;DHT22;65970;50.476;4.840;2023-11-18T07:52:27;8.00;39.80
77039;DHT22;65970;50.476;4.840;2023-11-18T07:57:27;8.00;39.70
77039;DHT22;65970;50.476;4.840;2023-11-18T08:02:28;8.00;39.90
77039;DHT22;65970;50.476;4.840;2023-11-18T08:07:28;8.00;38.80
77039;DHT22;65970;50.476;4.840;2023-11-18T08:12:30;8.00;39.70
77039;DHT22;65970;50.476;4.840;2023-11-18T08:17:30;8.10;39.70
77039;DHT22;65970;50.476;4.840;2023-11-18T08:22:31;8.10;39.80
77039;DHT22;65970;50.476;4.840;2023-11-18T08:27:31;8.00;39.60
77039;DHT22;65970;50.476;4.840;2023-11-18T08:32:32;8.10;39.80
77039;DHT22;65970;50.476;4.840;2023-11-18T08:37:33;8.10;39.90
77039;DHT22;65970;50.476;4.840;2023-11-18T08:42:35;8.10;40.20
77039;DHT22;65970;50.476;4.840;2023-11-18T08:47:36;8.10;40.00
77039;DHT22;65970;50.476;4.840;2023-11-18T08:52:36;8.10;40.20
77039;DHT22;65970;50.476;4.840;2023-11-18T08:57:37;8.20;40.40
77039;DHT22;65970;50.476;4.840;2023-11-18T09:02:38;8.20;40.10
77039;DHT22;65970;50.476;4.840;2023-11-18T09:07:38;8.20;40.40
77039;DHT22;65970;50.476;4.840;2023-11-18T09:12:39;8.20;40.30
77039;DHT22;65970;50.476;4.840;2023-11-18T09:17:39;8.20;40.60
77039;DHT22;65970;50.476;4.840;2023-11-18T09:22:40;8.20;40.20
77039;DHT22;65970;50.476;4.840;2023-11-18T09:27:41;8.20;40.50
77039;DHT22;65970;50.476;4.840;2023-11-18T09:32:43;8.30;40.40
77039;DHT22;65970;50.476;4.840;2023-11-18T09:37:43;8.30;40.60
77039;DHT22;65970;50.476;4.840;2023-11-18T09:42:44;8.30;40.80
77039;DHT22;65970;50.476;4.840;2023-11-18T09:47:45;8.30;40.80
77039;DHT22;65970;50.476;4.840;2023-11-18T09:52:49;8.40;40.70
77039;DHT22;65970;50.476;4.840;2023-11-18T09:58:03;8.40;40.90
77039;DHT22;65970;50.476;4.840;2023-11-18T10:03:04;8.40;40.60
77039;DHT22;65970;50.476;4.840;2023-11-18T10:08:05;8.40;41.00
77039;DHT22;65970;50.476;4.840;2023-11-18T10:13:06;8.40;40.60
77039;DHT22;65970;50.476;4.840;2023-11-18T10:18:06;8.40;41.00
77039;DHT22;65970;50.476;4.840;2023-11-18T10:23:09;8.50;40.70
77039;DHT22;65970;50.476;4.840;2023-11-18T10:28:24;8.50;40.80
77039;DHT22;65970;50.476;4.840;2023-11-18T10:33:25;8.50;41.40
77039;DHT22;65970;50.476;4.840;2023-11-18T10:38:26;8.50;40.60
77039;DHT22;65970;50.476;4.840;2023-11-18T10:43:27;8.50;40.00
77039;DHT22;65970;50.476;4.840;2023-11-18T10:48:30;8.50;40.00
77039;DHT22;65970;50.476;4.840;2023-11-18T10:53:31;8.60;40.50
77039;DHT22;65970;50.476;4.840;2023-11-18T10:58:37;8.60;40.00
77039;DHT22;65970;50.476;4.840;2023-11-18T11:03:53;8.60;39.90
77039;DHT22;65970;50.476;4.840;2023-11-18T11:08:54;8.60;40.10
77039;DHT22;65970;50.476;4.840;2023-11-18T11:13:57;8.70;40.00
77039;DHT22;65970;50.476;4.840;2023-11-18T11:19:00;8.70;40.10
77039;DHT22;65970;50.476;4.840;2023-11-18T11:24:11;8.70;40.20
77039;DHT22;65970;50.476;4.840;2023-11-18T11:34:23;8.70;39.90
77039;DHT22;65970;50.476;4.840;2023-11-18T11:39:26;8.70;39.80
77039;DHT22;65970;50.476;4.840;2023-11-18T11:44:27;8.80;40.00
77039;DHT22;65970;50.476;4.840;2023-11-18T11:49:36;8.80;40.50
77039;DHT22;65970;50.476;4.840;2023-11-18T11:54:43;8.80;40.40
77039;DHT22;65970;50.476;4.840;2023-11-18T12:04:47;8.80;40.50
77039;DHT22;65970;50.476;4.840;2023-11-18T12:09:48;8.90;40.40
77039;DHT22;65970;50.476;4.840;2023-11-18T12:15:07;8.90;40.40
77039;DHT22;65970;50.476;4.840;2023-11-18T12:20:44;8.90;40.60
77039;DHT22;65970;50.476;4.840;2023-11-18T12:25:44;8.90;40.80
77039;DHT22;65970;50.476;4.840;2023-11-18T12:30:45;8.90;40.50
77039;DHT22;65970;50.476;4.840;2023-11-18T12:40:53;9.00;41.40
77039;DHT22;65970;50.476;4.840;2023-11-18T12:51:16;9.00;41.00
77039;DHT22;65970;50.476;4.840;2023-11-18T12:56:19;9.00;40.80
77039;DHT22;65970;50.476;4.840;2023-11-18T13:01:20;9.10;41.20
77039;DHT22;65970;50.476;4.840;2023-11-18T13:06:20;9.10;41.10
77039;DHT22;65970;50.476;4.840;2023-11-18T13:11:22;9.10;41.10
77039;DHT22;65970;50.476;4.840;2023-11-18T13:16:23;9.10;41.00
77039;DHT22;65970;50.476;4.840;2023-11-18T13:21:24;9.10;41.40
77039;DHT22;65970;50.476;4.840;2023-11-18T13:26:25;9.10;41.20
77039;DHT22;65970;50.476;4.840;2023-11-18T13:31:25;9.20;41.60
77039;DHT22;65970;50.476;4.840;2023-11-18T13:36:26;9.20;41.40
77039;DHT22;65970;50.476;4.840;2023-11-18T13:41:30;9.20;41.40
77039;DHT22;65970;50.476;4.840;2023-11-18T13:46:31;9.20;41.70
77039;DHT22;65970;50.476;4.840;2023-11-18T13:51:32;9.20;41.40
77039;DHT22;65970;50.476;4.840;2023-11-18T13:56:32;9.20;41.60
77039;DHT22;65970;50.476;4.840;2023-11-18T14:01:33;9.20;42.20
77039;DHT22;65970;50.476;4.840;2023-11-18T14:06:35;9.20;41.60
77039;DHT22;65970;50.476;4.840;2023-11-18T14:11:36;9.20;41.50
77039;DHT22;65970;50.476;4.840;2023-11-18T14:16:36;9.30;40.70
77039;DHT22;65970;50.476;4.840;2023-11-18T14:21:37;9.30;41.70
77039;DHT22;65970;50.476;4.840;2023-11-18T14:26:38;9.30;41.60
77039;DHT22;65970;50.476;4.840;2023-11-18T14:31:38;9.30;41.70
77039;DHT22;65970;50.476;4.840;2023-11-18T14:36:39;9.30;41.70
77039;DHT22;65970;50.476;4.840;2023-11-18T14:41:40;9.40;41.70
77039;DHT22;65970;50.476;4.840;2023-11-18T14:46:41;9.30;41.70
77039;DHT22;65970;50.476;4.840;2023-11-18T14:51:41;9.40;41.80
77039;DHT22;65970;50.476;4.840;2023-11-18T14:56:43;9.40;41.90
77039;DHT22;65970;50.476;4.840;2023-11-18T15:01:47;9.40;41.90
77039;DHT22;65970;50.476;4.840;2023-11-18T15:06:48;9.40;42.00
77039;DHT22;65970;50.476;4.840;2023-11-18T15:11:49;9.40;41.90
77039;DHT22;65970;50.476;4.840;2023-11-18T15:16:49;9.40;41.80
77039;DHT22;65970;50.476;4.840;2023-11-18T15:21:50;9.50;42.10
77039;DHT22;65970;50.476;4.840;2023-11-18T15:26:50;9.50;41.80
77039;DHT22;65970;50.476;4.840;2023-11-18T15:31:51;9.50;41.90
77039;DHT22;65970;50.476;4.840;2023-11-18T15:36:51;9.50;41.70
77039;DHT22;65970;50.476;4.840;2023-11-18T15:41:52;9.50;41.90
77039;DHT22;65970;50.476;4.840;2023-11-18T15:46:52;9.50;41.90
77039;DHT22;65970;50.476;4.840;2023-11-18T15:51:53;9.60;41.90
77039;DHT22;65970;50.476;4.840;2023-11-18T15:56:53;9.50;41.90
77039;DHT22;65970;50.476;4.840;2023-11-18T16:01:54;9.60;41.90
77039;DHT22;65970;50.476;4.840;2023-11-18T16:06:54;9.60;42.00
77039;DHT22;65970;50.476;4.840;2023-11-18T16:11:55;9.60;42.10
77039;DHT22;65970;50.476;4.840;2023-11-18T16:16:55;9.60;42.00
77039;DHT22;65970;50.476;4.840;2023-11-18T16:21:56;9.60;42.10
77039;DHT22;65970;50.476;4.840;2023-11-18T16:26:56;9.60;42.10
77039;DHT22;65970;50.476;4.840;2023-11-18T16:31:57;9.70;42.40
77039;DHT22;65970;50.476;4.840;2023-11-18T16:36:57;9.70;42.40
77039;DHT22;65970;50.476;4.840;2023-11-18T16:41:58;9.70;42.70
77039;DHT22;65970;50.476;4.840;2023-11-18T16:46:59;9.70;42.60
77039;DHT22;65970;50.476;4.840;2023-11-18T16:51:59;9.80;42.80
77039;DHT22;65970;50.476;4.840;2023-11-18T16:57:00;9.80;42.70
77039;DHT22;65970;50.476;4.840;2023-11-18T17:02:00;9.80;43.00
77039;DHT22;65970;50.476;4.840;2023-11-18T17:07:01;9.80;42.90
77039;DHT22;65970;50.476;4.840;2023-11-18T17:12:01;9.90;43.20
77039;DHT22;65970;50.476;4.840;2023-11-18T17:17:02;9.90;42.70
77039;DHT22;65970;50.476;4.840;2023-11-18T17:22:03;9.90;42.80
77039;DHT22;65970;50.476;4.840;2023-11-18T17:27:03;9.90;43.10
77039;DHT22;65970;50.476;4.840;2023-11-18T17:32:04;10.00;43.00
77039;DHT22;65970;50.476;4.840;2023-11-18T17:37:07;10.00;42.90
77039;DHT22;65970;50.476;4.840;2023-11-18T17:42:08;10.00;42.90
77039;DHT22;65970;50.476;4.840;2023-11-18T17:47:08;10.00;43.00
77039;DHT22;65970;50.476;4.840;2023-11-18T17:52:09;10.00;42.00
77039;DHT22;65970;50.476;4.840;2023-11-18T17:57:09;10.10;43.00
77039;DHT22;65970;50.476;4.840;2023-11-18T18:02:10;10.10;43.10
77039;DHT22;65970;50.476;4.840;2023-11-18T18:07:11;10.10;43.30
77039;DHT22;65970;50.476;4.840;2023-11-18T18:12:12;10.10;43.50
77039;DHT22;65970;50.476;4.840;2023-11-18T18:17:13;10.20;43.70
77039;DHT22;65970;50.476;4.840;2023-11-18T18:22:13;10.20;43.50
77039;DHT22;65970;50.476;4.840;2023-11-18T18:27:14;10.20;43.60
77039;DHT22;65970;50.476;4.840;2023-11-18T18:32:14;10.30;43.50
77039;DHT22;65970;50.476;4.840;2023-11-18T18:37:15;10.30;43.50
77039;DHT22;65970;50.476;4.840;2023-11-18T18:42:15;10.30;43.50
77039;DHT22;65970;50.476;4.840;2023-11-18T18:47:16;10.40;43.60
77039;DHT22;65970;50.476;4.840;2023-11-18T18:52:16;10.40;43.80
77039;DHT22;65970;50.476;4.840;2023-11-18T18:57:17;10.40;43.70
77039;DHT22;65970;50.476;4.840;2023-11-18T19:02:18;10.40;43.80
77039;DHT22;65970;50.476;4.840;2023-11-18T19:07:18;10.50;43.80
77039;DHT22;65970;50.476;4.840;2023-11-18T19:12:19;10.50;44.10
77039;DHT22;65970;50.476;4.840;2023-11-18T19:17:19;10.50;44.10
77039;DHT22;65970;50.476;4.840;2023-11-18T19:22:20;10.50;44.20
77039;DHT22;65970;50.476;4.840;2023-11-18T19:27:20;10.60;44.40
77039;DHT22;65970;50.476;4.840;2023-11-18T19:32:21;10.60;44.50
77039;DHT22;65970;50.476;4.840;2023-11-18T19:37:21;10.60;44.70
77039;DHT22;65970;50.476;4.840;2023-11-18T19:42:22;10.70;44.50
77039;DHT22;65970;50.476;4.840;2023-11-18T19:47:23;10.70;44.50
77039;DHT22;65970;50.476;4.840;2023-11-18T19:52:24;10.80;44.40
77039;DHT22;65970;50.476;4.840;2023-11-18T19:57:24;10.80;44.50
77039;DHT22;65970;50.476;4.840;2023-11-18T20:02:25;10.80;44.50
77039;DHT22;65970;50.476;4.840;2023-11-18T20:07:25;10.80;44.60
77039;DHT22;65970;50.476;4.840;2023-11-18T20:12:26;10.80;43.60
77039;DHT22;65970;50.476;4.840;2023-11-18T20:17:26;10.90;44.70
77039;DHT22;65970;50.476;4.840;2023-11-18T20:22:27;10.90;44.80
77039;DHT22;65970;50.476;4.840;2023-11-18T20:27:27;10.90;44.80
77039;DHT22;65970;50.476;4.840;2023-11-18T20:32:28;11.00;44.80
77039;DHT22;65970;50.476;4.840;2023-11-18T20:37:28;11.00;44.70
77039;DHT22;65970;50.476;4.840;2023-11-18T20:42:29;11.00;45.00
77039;DHT22;65970;50.476;4.840;2023-11-18T20:47:30;11.10;44.80
77039;DHT22;65970;50.476;4.840;2023-11-18T20:52:30;11.10;44.80
77039;DHT22;65970;50.476;4.840;2023-11-18T20:57:31;11.10;44.90
77039;DHT22;65970;50.476;4.840;2023-11-18T21:02:31;11.10;44.90
77039;DHT22;65970;50.476;4.840;2023-11-18T21:07:32;11.20;44.00
77039;DHT22;65970;50.476;4.840;2023-11-18T21:12:32;11.20;44.90
77039;DHT22;65970;50.476;4.840;2023-11-18T21:17:33;11.20;44.80
77039;DHT22;65970;50.476;4.840;2023-11-18T21:22:34;11.20;44.90
77039;DHT22;65970;50.476;4.840;2023-11-18T21:27:34;11.30;45.10
77039;DHT22;65970;50.476;4.840;2023-11-18T21:32:38;11.30;45.30
77039;DHT22;65970;50.476;4.840;2023-11-18T21:37:38;11.30;45.40
77039;DHT22;65970;50.476;4.840;2023-11-18T21:42:40;11.40;45.50
77039;DHT22;65970;50.476;4.840;2023-11-18T21:47:40;11.40;45.50
77039;DHT22;65970;50.476;4.840;2023-11-18T21:52:42;11.40;45.50
77039;DHT22;65970;50.476;4.840;2023-11-18T21:57:42;11.40;45.50
77039;DHT22;65970;50.476;4.840;2023-11-18T22:02:44;11.50;45.70
77039;DHT22;65970;50.476;4.840;2023-11-18T22:07:45;11.50;45.60
77039;DHT22;65970;50.476;4.840;2023-11-18T22:12:46;11.50;45.50
77039;DHT22;65970;50.476;4.840;2023-11-18T22:17:47;11.50;45.40
77039;DHT22;65970;50.476;4.840;2023-11-18T22:22:47;11.60;45.50
77039;DHT22;65970;50.476;4.840;2023-11-18T22:27:48;11.60;45.60
77039;DHT22;65970;50.476;4.840;2023-11-18T22:32:48;11.70;45.60
77039;DHT22;65970;50.476;4.840;2023-11-18T22:37:49;11.60;45.50
77039;DHT22;65970;50.476;4.840;2023-11-18T22:42:49;11.70;45.70
77039;DHT22;65970;50.476;4.840;2023-11-18T22:47:50;11.70;45.60
77039;DHT22;65970;50.476;4.840;2023-11-18T22:52:50;11.70;45.70
77039;DHT22;65970;50.476;4.840;2023-11-18T22:57:51;11.80;45.70
77039;DHT22;65970;50.476;4.840;2023-11-18T23:02:51;11.80;45.70
77039;DHT22;65970;50.476;4.840;2023-11-18T23:07:53;11.80;45.70
77039;DHT22;65970;50.476;4.840;2023-11-18T23:12:53;11.80;45.70
77039;DHT22;65970;50.476;4.840;2023-11-18T23:17:54;11.90;45.80
77039;DHT22;65970;50.476;4.840;2023-11-18T23:22:54;11.90;45.90
77039;DHT22;65970;50.476;4.840;2023-11-18T23:27:55;11.90;45.90
77039;DHT22;65970;50.476;4.840;2023-11-18T23:32:56;11.90;45.80
77039;DHT22;65970;50.476;4.840;2023-11-18T23:37:56;12.00;45.90
77039;DHT22;65970;50.476;4.840;2023-11-18T23:42:57;12.00;45.90
77039;DHT22;65970;50.476;4.840;2023-11-18T23:47:57;12.00;45.90
77039;DHT22;65970;50.476;4.840;2023-11-18T23:52:58;12.00;46.00
77039;DHT22;65970;50.476;4.840;2023-11-18T23:57:59;12.00;46.10
